sensor_id;sensor_type;location;lat;lon;timestamp;pressure;altitude;pressure_sealevel;temperature;humidity
55301;BME280;58302;51.446;-2.000;2023-06-22T00:01:59;100802.75;;;13.41;100.00
55301;BME280;58302;51.446;-2.000;2023-06-22T00:04:25;100800.28;;;13.39;100.00
55301;BME280;58302;51.446;-2.000;2023-06-22T00:06:51;100801.09;;;13.40;100.00
55301;BME280;58302;51.446;-2.000;2023-06-22T00:09:17;100800.56;;;13.38;100.00
55301;BME280;58302;51.446;-2.000;2023-06-22T00:11:43;100797.81;;;13.38;100.00
55301;BME280;58302;51.446;-2.000;2023-06-22T00:14:09;100803.00;;;13.44;100.00
55301;BME280;58302;51.446;-2.000;2023-06-22T00:16:35;100801.34;;;13.54;100.00
55301;BME280;58302;51.446;-2.000;2023-06-22T00:19:01;100798.09;;;13.52;100.00
55301;BME280;58302;51.446;-2.000;2023-06-22T00:21:28;100797.53;;;13.50;100.00
55301;BME280;58302;51.446;-2.000;2023-06-22T00:23:54;100795.38;;;13.41;100.00
55301;BME280;58302;51.446;-2.000;2023-06-22T00:26:21;100800.56;;;13.33;100.00
55301;BME280;58302;51.446;-2.000;2023-06-22T00:28:47;100796.19;;;13.27;100.00
55301;BME280;58302;51.446;-2.000;2023-06-22T00:31:13;100799.75;;;13.22;100.00
55301;BME280;58302;51.446;-2.000;2023-06-22T00:33:39;100807.91;;;13.17;100.00
55301;BME280;58302;51.446;-2.000;2023-06-22T00:36:05;100804.38;;;13.11;100.00
55301;BME280;58302;51.446;-2.000;2023-06-22T00:38:34;100814.47;;;13.11;100.00
55301;BME280;58302;51.446;-2.000;2023-06-22T00:41:00;100816.66;;;13.04;100.00
55301;BME280;58302;51.446;-2.000;2023-06-22T00:43:25;100822.91;;;12.99;100.00
55301;BME280;58302;51.446;-2.000;2023-06-22T00:45:51;100826.47;;;12.95;100.00
55301;BME280;58302;51.446;-2.000;2023-06-22T00:48:18;100827.84;;;12.92;100.00
55301;BME280;58302;51.446;-2.000;2023-06-22T00:50:44;100824.28;;;12.91;100.00
55301;BME280;58302;51.446;-2.000;2023-06-22T00:53:10;100814.44;;;12.85;100.00
55301;BME280;58302;51.446;-2.000;2023-06-22T00:55:46;100821.81;;;12.85;100.00
55301;BME280;58302;51.446;-2.000;2023-06-22T00:58:13;100825.63;;;12.79;100.00
55301;BME280;58302;51.446;-2.000;2023-06-22T01:00:40;100817.72;;;12.72;100.00
55301;BME280;58302;51.446;-2.000;2023-06-22T01:03:07;100819.59;;;12.66;100.00
55301;BME280;58302;51.446;-2.000;2023-06-22T01:05:38;100830.78;;;12.65;100.00
55301;BME280;58302;51.446;-2.000;2023-06-22T01:11:12;100832.41;;;12.61;100.00
55301;BME280;58302;51.446;-2.000;2023-06-22T01:14:04;100837.06;;;12.60;100.00
55301;BME280;58302;51.446;-2.000;2023-06-22T01:16:37;100833.53;;;12.65;100.00
55301;BME280;58302;51.446;-2.000;2023-06-22T01:21:55;100826.69;;;12.62;100.00
55301;BME280;58302;51.446;-2.000;2023-06-22T01:24:25;100833.22;;;12.61;100.00
55301;BME280;58302;51.446;-2.000;2023-06-22T01:29:20;100849.84;;;12.55;100.00
55301;BME280;58302;51.446;-2.000;2023-06-22T01:31:48;100845.75;;;12.57;100.00
55301;BME280;58302;51.446;-2.000;2023-06-22T01:34:15;100841.69;;;12.55;100.00
55301;BME280;58302;51.446;-2.000;2023-06-22T01:36:42;100843.84;;;12.53;100.00
55301;BME280;58302;51.446;-2.000;2023-06-22T01:39:09;100856.91;;;12.51;100.00
55301;BME280;58302;51.446;-2.000;2023-06-22T01:41:37;100857.47;;;12.48;100.00
55301;BME280;58302;51.446;-2.000;2023-06-22T01:44:07;100864.00;;;12.47;100.00
55301;BME280;58302;51.446;-2.000;2023-06-22T01:46:36;100867.56;;;12.52;100.00
55301;BME280;58302;51.446;-2.000;2023-06-22T01:49:04;100865.41;;;12.54;100.00
55301;BME280;58302;51.446;-2.000;2023-06-22T01:51:31;100875.22;;;12.55;100.00
55301;BME280;58302;51.446;-2.000;2023-06-22T01:53:57;100877.94;;;12.55;100.00
55301;BME280;58302;51.446;-2.000;2023-06-22T01:56:23;100871.38;;;12.51;100.00
55301;BME280;58302;51.446;-2.000;2023-06-22T01:59:11;100882.28;;;12.51;100.00
55301;BME280;58302;51.446;-2.000;2023-06-22T02:01:46;100886.91;;;12.51;100.00
55301;BME280;58302;51.446;-2.000;2023-06-22T02:04:24;100886.38;;;12.49;100.00
55301;BME280;58302;51.446;-2.000;2023-06-22T02:06:55;100891.53;;;12.50;100.00
55301;BME280;58302;51.446;-2.000;2023-06-22T02:09:23;100888.28;;;12.48;100.00
55301;BME280;58302;51.446;-2.000;2023-06-22T02:11:51;100884.75;;;12.48;100.00
55301;BME280;58302;51.446;-2.000;2023-06-22T02:14:22;100899.44;;;12.47;100.00
55301;BME280;58302;51.446;-2.000;2023-06-22T02:16:49;100901.34;;;12.46;100.00
55301;BME280;58302;51.446;-2.000;2023-06-22T02:19:16;100904.06;;;12.46;100.00
55301;BME280;58302;51.446;-2.000;2023-06-22T02:21:45;100904.06;;;12.46;100.00
55301;BME280;58302;51.446;-2.000;2023-06-22T02:24:11;100900.00;;;12.49;100.00
55301;BME280;58302;51.446;-2.000;2023-06-22T02:26:37;100906.28;;;12.49;100.00
55301;BME280;58302;51.446;-2.000;2023-06-22T02:29:05;100913.91;;;12.52;100.00
55301;BME280;58302;51.446;-2.000;2023-06-22T02:31:31;100911.16;;;12.52;100.00
55301;BME280;58302;51.446;-2.000;2023-06-22T02:33:58;100917.72;;;12.51;100.00
55301;BME280;58302;51.446;-2.000;2023-06-22T02:36:24;100921.81;;;12.49;100.00
55301;BME280;58302;51.446;-2.000;2023-06-22T02:38:54;100931.09;;;12.53;100.00
55301;BME280;58302;51.446;-2.000;2023-06-22T02:41:23;100932.47;;;12.55;100.00
55301;BME280;58302;51.446;-2.000;2023-06-22T02:43:48;100933.00;;;12.57;100.00
55301;BME280;58302;51.446;-2.000;2023-06-22T02:48:50;100936.03;;;12.61;100.00
55301;BME280;58302;51.446;-2.000;2023-06-22T02:51:16;100934.41;;;12.60;100.00
55301;BME280;58302;51.446;-2.000;2023-06-22T02:53:42;100938.22;;;12.59;100.00
55301;BME280;58302;51.446;-2.000;2023-06-22T02:56:11;100942.56;;;12.55;100.00
55301;BME280;58302;51.446;-2.000;2023-06-22T02:58:38;100939.81;;;12.50;100.00
55301;BME280;58302;51.446;-2.000;2023-06-22T03:01:05;100937.88;;;12.45;100.00
55301;BME280;58302;51.446;-2.000;2023-06-22T03:03:31;100940.56;;;12.40;100.00
55301;BME280;58302;51.446;-2.000;2023-06-22T03:05:57;100933.19;;;12.35;100.00
55301;BME280;58302;51.446;-2.000;2023-06-22T03:08:23;100938.91;;;12.34;100.00
55301;BME280;58302;51.446;-2.000;2023-06-22T03:10:49;100937.53;;;12.31;100.00
55301;BME280;58302;51.446;-2.000;2023-06-22T03:13:15;100936.44;;;12.27;100.00
55301;BME280;58302;51.446;-2.000;2023-06-22T03:15:42;100936.44;;;12.27;100.00
55301;BME280;58302;51.446;-2.000;2023-06-22T03:18:08;100930.44;;;12.25;100.00
55301;BME280;58302;51.446;-2.000;2023-06-22T03:20:34;100924.94;;;12.20;100.00
55301;BME280;58302;51.446;-2.000;2023-06-22T03:23:00;100924.66;;;12.17;100.00
55301;BME280;58302;51.446;-2.000;2023-06-22T03:25:26;100924.34;;;12.13;100.00
55301;BME280;58302;51.446;-2.000;2023-06-22T03:27:52;100934.44;;;12.12;100.00
55301;BME280;58302;51.446;-2.000;2023-06-22T03:30:18;100930.06;;;12.11;100.00
55301;BME280;58302;51.446;-2.000;2023-06-22T03:32:44;100933.34;;;12.13;100.00
55301;BME280;58302;51.446;-2.000;2023-06-22T03:35:10;100924.88;;;12.10;100.00
55301;BME280;58302;51.446;-2.000;2023-06-22T03:37:38;100929.22;;;12.06;100.00
55301;BME280;58302;51.446;-2.000;2023-06-22T03:40:05;100931.38;;;11.99;100.00
55301;BME280;58302;51.446;-2.000;2023-06-22T03:42:33;100928.31;;;11.95;100.00
55301;BME280;58302;51.446;-2.000;2023-06-22T03:45:00;100931.56;;;11.92;100.00
55301;BME280;58302;51.446;-2.000;2023-06-22T03:47:26;100944.38;;;11.92;100.00
55301;BME280;58302;51.446;-2.000;2023-06-22T03:49:52;100948.19;;;11.91;100.00
55301;BME280;58302;51.446;-2.000;2023-06-22T03:52:21;100941.63;;;11.92;100.00
55301;BME280;58302;51.446;-2.000;2023-06-22T03:54:48;100935.72;;;12.00;100.00
55301;BME280;58302;51.446;-2.000;2023-06-22T03:57:14;100938.22;;;12.06;100.00
55301;BME280;58302;51.446;-2.000;2023-06-22T03:59:40;100940.66;;;12.08;100.00
55301;BME280;58302;51.446;-2.000;2023-06-22T04:02:06;100942.56;;;12.07;100.00
55301;BME280;58302;51.446;-2.000;2023-06-22T04:04:32;100933.84;;;12.05;100.00
55301;BME280;58302;51.446;-2.000;2023-06-22T04:06:59;100930.84;;;12.07;100.00
55301;BME280;58302;51.446;-2.000;2023-06-22T04:09:25;100919.13;;;12.06;100.00
55301;BME280;58302;51.446;-2.000;2023-06-22T04:11:51;100921.59;;;12.08;100.00
55301;BME280;58302;51.446;-2.000;2023-06-22T04:14:17;100919.94;;;12.07;100.00
55301;BME280;58302;51.446;-2.000;2023-06-22T04:16:43;100919.16;;;12.11;100.00
55301;BME280;58302;51.446;-2.000;2023-06-22T04:19:09;100920.00;;;12.17;100.00
55301;BME280;58302;51.446;-2.000;2023-06-22T04:21:42;100919.50;;;12.20;100.00
55301;BME280;58302;51.446;-2.000;2023-06-22T04:24:10;100918.69;;;12.25;100.00
55301;BME280;58302;51.446;-2.000;2023-06-22T04:26:37;100920.34;;;12.26;100.00
55301;BME280;58302;51.446;-2.000;2023-06-22T04:29:07;100921.16;;;12.26;100.00
55301;BME280;58302;51.446;-2.000;2023-06-22T04:31:34;100915.97;;;12.25;100.00
55301;BME280;58302;51.446;-2.000;2023-06-22T04:34:04;100923.06;;;12.26;100.00
55301;BME280;58302;51.446;-2.000;2023-06-22T04:36:37;100918.44;;;12.26;100.00
55301;BME280;58302;51.446;-2.000;2023-06-22T04:39:05;100926.88;;;12.30;100.00
55301;BME280;58302;51.446;-2.000;2023-06-22T04:41:31;100927.19;;;12.33;100.00
55301;BME280;58302;51.446;-2.000;2023-06-22T04:44:11;100931.53;;;12.34;100.00
55301;BME280;58302;51.446;-2.000;2023-06-22T04:46:38;100928.53;;;12.36;100.00
55301;BME280;58302;51.446;-2.000;2023-06-22T04:49:08;100929.94;;;12.38;100.00
55301;BME280;58302;51.446;-2.000;2023-06-22T04:51:42;100932.38;;;12.40;100.00
55301;BME280;58302;51.446;-2.000;2023-06-22T04:54:09;100932.41;;;12.45;100.00
55301;BME280;58302;51.446;-2.000;2023-06-22T04:56:35;100937.06;;;12.50;100.00
55301;BME280;58302;51.446;-2.000;2023-06-22T04:59:01;100940.38;;;12.57;100.00
55301;BME280;58302;51.446;-2.000;2023-06-22T05:01:29;100939.88;;;12.65;100.00
55301;BME280;58302;51.446;-2.000;2023-06-22T05:03:57;100937.19;;;12.75;100.00
55301;BME280;58302;51.446;-2.000;2023-06-22T05:06:26;100936.38;;;12.85;100.00
55301;BME280;58302;51.446;-2.000;2023-06-22T05:08:57;100939.41;;;12.88;100.00
55301;BME280;58302;51.446;-2.000;2023-06-22T05:11:27;100933.94;;;12.93;100.00
55301;BME280;58302;51.446;-2.000;2023-06-22T05:13:54;100947.06;;;12.97;100.00
55301;BME280;58302;51.446;-2.000;2023-06-22T05:16:20;100944.34;;;12.97;100.00
55301;BME280;58302;51.446;-2.000;2023-06-22T05:18:51;100950.63;;;13.02;100.00
55301;BME280;58302;51.446;-2.000;2023-06-22T05:21:18;100952.00;;;13.10;100.00
55301;BME280;58302;51.446;-2.000;2023-06-22T05:23:44;100955.31;;;13.22;100.00
55301;BME280;58302;51.446;-2.000;2023-06-22T05:26:10;100947.69;;;13.29;100.00
55301;BME280;58302;51.446;-2.000;2023-06-22T05:28:36;100950.44;;;13.44;100.00
55301;BME280;58302;51.446;-2.000;2023-06-22T05:31:02;100954.00;;;13.60;100.00
55301;BME280;58302;51.446;-2.000;2023-06-22T05:33:29;100954.81;;;13.71;100.00
55301;BME280;58302;51.446;-2.000;2023-06-22T05:35:55;100951.00;;;13.82;100.00
55301;BME280;58302;51.446;-2.000;2023-06-22T05:38:21;100957.53;;;13.96;100.00
55301;BME280;58302;51.446;-2.000;2023-06-22T05:40:47;100953.69;;;14.08;100.00
55301;BME280;58302;51.446;-2.000;2023-06-22T05:43:13;100960.22;;;14.22;100.00
55301;BME280;58302;51.446;-2.000;2023-06-22T05:45:39;100958.25;;;14.38;100.00
55301;BME280;58302;51.446;-2.000;2023-06-22T05:48:05;100957.97;;;14.44;100.00
55301;BME280;58302;51.446;-2.000;2023-06-22T05:50:31;100958.22;;;14.58;100.00
55301;BME280;58302;51.446;-2.000;2023-06-22T05:52:57;100959.00;;;14.69;100.00
55301;BME280;58302;51.446;-2.000;2023-06-22T05:55:23;100970.72;;;14.80;100.00
55301;BME280;58302;51.446;-2.000;2023-06-22T05:57:49;100973.69;;;14.88;100.00
55301;BME280;58302;51.446;-2.000;2023-06-22T06:00:15;100975.56;;;14.93;100.00
55301;BME280;58302;51.446;-2.000;2023-06-22T06:02:41;100976.41;;;14.93;100.00
55301;BME280;58302;51.446;-2.000;2023-06-22T06:05:12;100973.63;;;14.98;100.00
55301;BME280;58302;51.446;-2.000;2023-06-22T06:07:44;100975.25;;;15.05;100.00
55301;BME280;58302;51.446;-2.000;2023-06-22T06:10:10;100976.00;;;15.15;100.00
55301;BME280;58302;51.446;-2.000;2023-06-22T06:12:36;100975.63;;;15.32;100.00
55301;BME280;58302;51.446;-2.000;2023-06-22T06:15:03;100975.09;;;15.30;100.00
55301;BME280;58302;51.446;-2.000;2023-06-22T06:17:29;100970.88;;;15.43;100.00
55301;BME280;58302;51.446;-2.000;2023-06-22T06:19:55;100974.16;;;15.50;100.00
55301;BME280;58302;51.446;-2.000;2023-06-22T06:22:21;100965.59;;;15.57;100.00
55301;BME280;58302;51.446;-2.000;2023-06-22T06:24:49;100968.78;;;15.74;100.00
55301;BME280;58302;51.446;-2.000;2023-06-22T06:27:15;100968.09;;;15.87;100.00
55301;BME280;58302;51.446;-2.000;2023-06-22T06:29:44;100966.38;;;15.96;100.00
55301;BME280;58302;51.446;-2.000;2023-06-22T06:32:13;100973.91;;;16.10;100.00
55301;BME280;58302;51.446;-2.000;2023-06-22T06:34:40;100970.75;;;16.26;100.00
55301;BME280;58302;51.446;-2.000;2023-06-22T06:37:06;100968.63;;;16.42;100.00
55301;BME280;58302;51.446;-2.000;2023-06-22T06:39:32;100970.16;;;16.53;100.00
55301;BME280;58302;51.446;-2.000;2023-06-22T06:41:58;100961.25;;;17.09;100.00
55301;BME280;58302;51.446;-2.000;2023-06-22T06:44:24;100960.81;;;18.05;100.00
55301;BME280;58302;51.446;-2.000;2023-06-22T06:46:50;100940.91;;;19.18;100.00
55301;BME280;58302;51.446;-2.000;2023-06-22T06:49:15;100920.34;;;19.92;100.00
55301;BME280;58302;51.446;-2.000;2023-06-22T06:51:41;100892.56;;;20.76;100.00
55301;BME280;58302;51.446;-2.000;2023-06-22T06:54:07;100786.69;;;21.45;100.00
55301;BME280;58302;51.446;-2.000;2023-06-22T06:56:33;100694.94;;;22.02;100.00
55301;BME280;58302;51.446;-2.000;2023-06-22T06:58:59;100686.69;;;22.23;100.00
55301;BME280;58302;51.446;-2.000;2023-06-22T07:01:25;100768.78;;;22.19;100.00
55301;BME280;58302;51.446;-2.000;2023-06-22T07:03:51;100842.13;;;22.43;100.00
55301;BME280;58302;51.446;-2.000;2023-06-22T07:06:17;100861.19;;;22.35;100.00
55301;BME280;58302;51.446;-2.000;2023-06-22T07:08:43;100857.75;;;22.47;100.00
55301;BME280;58302;51.446;-2.000;2023-06-22T07:11:09;100868.56;;;22.82;100.00
55301;BME280;58302;51.446;-2.000;2023-06-22T07:13:35;100866.47;;;23.21;100.00
55301;BME280;58302;51.446;-2.000;2023-06-22T07:16:01;100871.69;;;23.55;100.00
55301;BME280;58302;51.446;-2.000;2023-06-22T07:18:27;100881.19;;;23.33;100.00
55301;BME280;58302;51.446;-2.000;2023-06-22T07:20:53;100873.94;;;23.08;100.00
55301;BME280;58302;51.446;-2.000;2023-06-22T07:23:19;100882.50;;;23.15;100.00
55301;BME280;58302;51.446;-2.000;2023-06-22T07:25:45;100886.88;;;23.37;100.00
55301;BME280;58302;51.446;-2.000;2023-06-22T07:28:11;100895.72;;;22.97;100.00
55301;BME280;58302;51.446;-2.000;2023-06-22T07:30:37;100892.78;;;23.35;100.00
55301;BME280;58302;51.446;-2.000;2023-06-22T07:33:03;100894.56;;;23.52;100.00
55301;BME280;58302;51.446;-2.000;2023-06-22T07:35:32;100885.88;;;23.42;100.00
55301;BME280;58302;51.446;-2.000;2023-06-22T07:37:58;100886.03;;;23.90;100.00
55301;BME280;58302;51.446;-2.000;2023-06-22T07:40:25;100902.69;;;24.27;100.00
55301;BME280;58302;51.446;-2.000;2023-06-22T07:42:51;100913.84;;;24.64;100.00
55301;BME280;58302;51.446;-2.000;2023-06-22T07:45:18;100911.53;;;24.54;100.00
55301;BME280;58302;51.446;-2.000;2023-06-22T07:47:44;100900.13;;;24.83;100.00
55301;BME280;58302;51.446;-2.000;2023-06-22T07:50:10;100912.56;;;25.26;100.00
55301;BME280;58302;51.446;-2.000;2023-06-22T07:52:36;100909.00;;;25.69;100.00
55301;BME280;58302;51.446;-2.000;2023-06-22T07:55:03;100908.91;;;26.10;100.00
55301;BME280;58302;51.446;-2.000;2023-06-22T07:57:30;100919.31;;;26.60;100.00
55301;BME280;58302;51.446;-2.000;2023-06-22T08:00:00;100929.16;;;25.79;100.00
55301;BME280;58302;51.446;-2.000;2023-06-22T08:02:26;100931.44;;;25.89;100.00
55301;BME280;58302;51.446;-2.000;2023-06-22T08:04:52;100930.34;;;26.25;100.00
55301;BME280;58302;51.446;-2.000;2023-06-22T08:07:18;100933.13;;;26.41;100.00
55301;BME280;58302;51.446;-2.000;2023-06-22T08:09:47;100936.91;;;26.64;100.00
55301;BME280;58302;51.446;-2.000;2023-06-22T08:12:13;100939.72;;;26.99;100.00
55301;BME280;58302;51.446;-2.000;2023-06-22T08:14:42;100940.69;;;26.09;100.00
55301;BME280;58302;51.446;-2.000;2023-06-22T08:17:09;100942.59;;;26.05;100.00
55301;BME280;58302;51.446;-2.000;2023-06-22T08:19:36;100939.63;;;26.29;100.00
55301;BME280;58302;51.446;-2.000;2023-06-22T08:22:03;100936.94;;;26.99;100.00
55301;BME280;58302;51.446;-2.000;2023-06-22T08:24:29;100934.19;;;27.77;100.00
55301;BME280;58302;51.446;-2.000;2023-06-22T08:34:13;100954.31;;;28.32;100.00
55301;BME280;58302;51.446;-2.000;2023-06-22T08:36:39;100945.28;;;27.73;100.00
55301;BME280;58302;51.446;-2.000;2023-06-22T08:39:10;100949.72;;;27.97;100.00
55301;BME280;58302;51.446;-2.000;2023-06-22T08:41:36;100939.59;;;27.89;100.00
55301;BME280;58302;51.446;-2.000;2023-06-22T08:44:02;100939.75;;;27.57;100.00
55301;BME280;58302;51.446;-2.000;2023-06-22T08:46:29;100944.88;;;27.94;100.00
55301;BME280;58302;51.446;-2.000;2023-06-22T08:48:59;100954.53;;;28.43;100.00
55301;BME280;58302;51.446;-2.000;2023-06-22T08:51:26;100948.00;;;28.84;100.00
55301;BME280;58302;51.446;-2.000;2023-06-22T08:53:52;100944.13;;;29.53;100.00
55301;BME280;58302;51.446;-2.000;2023-06-22T08:56:18;100945.84;;;29.64;100.00
55301;BME280;58302;51.446;-2.000;2023-06-22T08:58:44;100940.25;;;29.64;100.00
55301;BME280;58302;51.446;-2.000;2023-06-22T09:01:10;100954.41;;;29.45;100.00
55301;BME280;58302;51.446;-2.000;2023-06-22T09:03:36;100947.97;;;29.41;100.00
55301;BME280;58302;51.446;-2.000;2023-06-22T09:06:03;100947.16;;;29.10;100.00
55301;BME280;58302;51.446;-2.000;2023-06-22T09:08:29;100957.28;;;29.19;100.00
55301;BME280;58302;51.446;-2.000;2023-06-22T09:10:55;100958.31;;;28.80;100.00
55301;BME280;58302;51.446;-2.000;2023-06-22T09:13:21;100955.56;;;28.12;100.00
55301;BME280;58302;51.446;-2.000;2023-06-22T09:15:48;100962.16;;;28.46;100.00
55301;BME280;58302;51.446;-2.000;2023-06-22T09:18:14;100960.34;;;28.57;100.00
55301;BME280;58302;51.446;-2.000;2023-06-22T09:20:40;100950.22;;;28.26;100.00
55301;BME280;58302;51.446;-2.000;2023-06-22T09:23:06;100956.25;;;28.05;100.00
55301;BME280;58302;51.446;-2.000;2023-06-22T09:25:32;100964.13;;;28.45;100.00
55301;BME280;58302;51.446;-2.000;2023-06-22T09:27:57;100952.47;;;28.63;100.00
55301;BME280;58302;51.446;-2.000;2023-06-22T09:30:23;100960.09;;;28.92;100.00
55301;BME280;58302;51.446;-2.000;2023-06-22T09:32:52;100961.91;;;28.08;100.00
55301;BME280;58302;51.446;-2.000;2023-06-22T09:35:18;100964.69;;;28.54;100.00
55301;BME280;58302;51.446;-2.000;2023-06-22T09:37:45;100957.84;;;29.01;100.00
55301;BME280;58302;51.446;-2.000;2023-06-22T09:40:11;100964.03;;;29.48;100.00
55301;BME280;58302;51.446;-2.000;2023-06-22T09:42:39;100958.78;;;29.76;100.00
55301;BME280;58302;51.446;-2.000;2023-06-22T09:45:05;100961.97;;;30.56;100.00
55301;BME280;58302;51.446;-2.000;2023-06-22T09:47:31;100962.22;;;30.00;100.00
55301;BME280;58302;51.446;-2.000;2023-06-22T09:49:57;100974.97;;;29.26;100.00
55301;BME280;58302;51.446;-2.000;2023-06-22T09:52:25;100975.00;;;28.04;100.00
55301;BME280;58302;51.446;-2.000;2023-06-22T09:54:51;100968.34;;;28.13;100.00
55301;BME280;58302;51.446;-2.000;2023-06-22T09:57:17;100973.69;;;28.41;100.00
55301;BME280;58302;51.446;-2.000;2023-06-22T09:59:43;100964.34;;;29.09;100.00
55301;BME280;58302;51.446;-2.000;2023-06-22T10:02:09;100961.47;;;28.79;100.00
55301;BME280;58302;51.446;-2.000;2023-06-22T10:04:35;100961.69;;;29.20;100.00
55301;BME280;58302;51.446;-2.000;2023-06-22T10:07:02;100960.25;;;30.00;100.00
55301;BME280;58302;51.446;-2.000;2023-06-22T10:09:28;100960.81;;;30.61;100.00
55301;BME280;58302;51.446;-2.000;2023-06-22T10:11:54;100948.78;;;31.26;100.00
55301;BME280;58302;51.446;-2.000;2023-06-22T10:14:20;100944.94;;;31.66;100.00
55301;BME280;58302;51.446;-2.000;2023-06-22T10:16:46;100954.69;;;32.15;100.00
55301;BME280;58302;51.446;-2.000;2023-06-22T10:19:12;100959.72;;;30.76;100.00
55301;BME280;58302;51.446;-2.000;2023-06-22T10:21:38;100956.31;;;29.68;100.00
55301;BME280;58302;51.446;-2.000;2023-06-22T10:24:04;100957.75;;;30.32;100.00
55301;BME280;58302;51.446;-2.000;2023-06-22T10:26:32;100963.88;;;30.01;100.00
55301;BME280;58302;51.446;-2.000;2023-06-22T10:28:59;100973.41;;;28.99;100.00
55301;BME280;58302;51.446;-2.000;2023-06-22T10:31:25;100957.72;;;29.88;100.00
55301;BME280;58302;51.446;-2.000;2023-06-22T10:33:53;100953.16;;;30.58;100.00
55301;BME280;58302;51.446;-2.000;2023-06-22T10:36:20;100952.16;;;30.87;100.00
55301;BME280;58302;51.446;-2.000;2023-06-22T10:38:46;100956.94;;;31.56;100.00
55301;BME280;58302;51.446;-2.000;2023-06-22T10:41:13;100948.69;;;32.35;100.00
55301;BME280;58302;51.446;-2.000;2023-06-22T10:43:39;100950.41;;;31.31;100.00
55301;BME280;58302;51.446;-2.000;2023-06-22T10:46:06;100950.78;;;30.12;100.00
55301;BME280;58302;51.446;-2.000;2023-06-22T10:48:32;100955.97;;;30.58;100.00
55301;BME280;58302;51.446;-2.000;2023-06-22T10:50:58;100955.47;;;31.00;100.00
55301;BME280;58302;51.446;-2.000;2023-06-22T10:53:24;100950.53;;;31.59;100.00
55301;BME280;58302;51.446;-2.000;2023-06-22T10:55:50;100966.97;;;31.50;100.00
55301;BME280;58302;51.446;-2.000;2023-06-22T10:58:18;100957.09;;;31.05;100.00
55301;BME280;58302;51.446;-2.000;2023-06-22T11:00:45;100961.66;;;30.21;100.00
55301;BME280;58302;51.446;-2.000;2023-06-22T11:03:11;100974.41;;;27.95;100.00
55301;BME280;58302;51.446;-2.000;2023-06-22T11:05:38;100980.41;;;27.55;100.00
55301;BME280;58302;51.446;-2.000;2023-06-22T11:08:04;100978.28;;;27.48;100.00
55301;BME280;58302;51.446;-2.000;2023-06-22T11:10:30;100978.41;;;26.50;100.00
55301;BME280;58302;51.446;-2.000;2023-06-22T11:12:55;100985.38;;;26.12;100.00
55301;BME280;58302;51.446;-2.000;2023-06-22T11:15:24;100986.56;;;26.27;100.00
55301;BME280;58302;51.446;-2.000;2023-06-22T11:17:50;100974.06;;;27.58;100.00
55301;BME280;58302;51.446;-2.000;2023-06-22T11:20:16;100965.91;;;29.36;100.00
55301;BME280;58302;51.446;-2.000;2023-06-22T11:22:42;100960.38;;;31.25;100.00
55301;BME280;58302;51.446;-2.000;2023-06-22T11:25:08;100953.47;;;32.34;100.00
55301;BME280;58302;51.446;-2.000;2023-06-22T11:27:35;100945.00;;;32.73;100.00
55301;BME280;58302;51.446;-2.000;2023-06-22T11:30:01;100947.97;;;33.61;100.00
55301;BME280;58302;51.446;-2.000;2023-06-22T11:32:27;100949.00;;;33.92;100.00
55301;BME280;58302;51.446;-2.000;2023-06-22T11:34:53;100959.84;;;33.13;100.00
55301;BME280;58302;51.446;-2.000;2023-06-22T11:37:19;100959.88;;;31.95;100.00
55301;BME280;58302;51.446;-2.000;2023-06-22T11:39:45;100957.38;;;30.85;100.00
55301;BME280;58302;51.446;-2.000;2023-06-22T11:42:11;100949.00;;;30.89;100.00
55301;BME280;58302;51.446;-2.000;2023-06-22T11:44:37;100946.53;;;31.60;100.00
55301;BME280;58302;51.446;-2.000;2023-06-22T11:47:03;100944.84;;;31.38;100.00
55301;BME280;58302;51.446;-2.000;2023-06-22T11:49:30;100943.06;;;30.05;100.00
55301;BME280;58302;51.446;-2.000;2023-06-22T11:51:56;100953.47;;;28.77;100.00
55301;BME280;58302;51.446;-2.000;2023-06-22T11:54:22;100950.03;;;28.15;100.00
55301;BME280;58302;51.446;-2.000;2023-06-22T11:56:48;100949.56;;;27.90;100.00
55301;BME280;58302;51.446;-2.000;2023-06-22T11:59:17;100946.38;;;27.11;100.00
55301;BME280;58302;51.446;-2.000;2023-06-22T12:01:44;100950.00;;;26.44;100.00
55301;BME280;58302;51.446;-2.000;2023-06-22T12:04:10;100958.22;;;25.93;100.00
55301;BME280;58302;51.446;-2.000;2023-06-22T12:06:38;100953.25;;;25.59;100.00
55301;BME280;58302;51.446;-2.000;2023-06-22T12:09:07;100951.56;;;25.70;100.00
55301;BME280;58302;51.446;-2.000;2023-06-22T12:11:33;100946.09;;;26.33;100.00
55301;BME280;58302;51.446;-2.000;2023-06-22T12:13:59;100945.22;;;26.96;100.00
55301;BME280;58302;51.446;-2.000;2023-06-22T12:16:28;100943.25;;;28.16;100.00
55301;BME280;58302;51.446;-2.000;2023-06-22T12:18:54;100933.97;;;29.75;100.00
55301;BME280;58302;51.446;-2.000;2023-06-22T12:21:20;100925.06;;;30.51;100.00
55301;BME280;58302;51.446;-2.000;2023-06-22T12:23:46;100923.59;;;30.20;100.00
55301;BME280;58302;51.446;-2.000;2023-06-22T12:26:12;100921.44;;;30.50;100.00
55301;BME280;58302;51.446;-2.000;2023-06-22T12:28:38;100923.06;;;30.51;100.00
55301;BME280;58302;51.446;-2.000;2023-06-22T12:31:04;100913.25;;;30.79;100.00
55301;BME280;58302;51.446;-2.000;2023-06-22T12:33:30;100916.63;;;31.16;100.00
55301;BME280;58302;51.446;-2.000;2023-06-22T12:35:56;100912.88;;;31.85;100.00
55301;BME280;58302;51.446;-2.000;2023-06-22T12:38:22;100916.91;;;32.16;100.00
55301;BME280;58302;51.446;-2.000;2023-06-22T12:40:51;100914.09;;;32.16;100.00
55301;BME280;58302;51.446;-2.000;2023-06-22T12:43:18;100916.97;;;30.42;100.00
55301;BME280;58302;51.446;-2.000;2023-06-22T12:45:44;100917.38;;;29.25;100.00
55301;BME280;58302;51.446;-2.000;2023-06-22T12:48:10;100924.31;;;28.52;100.00